createdAt,value
2022-12-26T00:00:27.088Z,90.62
2022-12-26T00:03:00.613Z,90.61
2022-12-26T00:05:38.875Z,90.53
2022-12-26T00:08:15.283Z,90.61
2022-12-26T00:10:49.975Z,90.66
2022-12-26T00:13:38.278Z,90.76
2022-12-26T00:16:08.620Z,91.04
2022-12-26T00:21:28.566Z,90.91
2022-12-26T00:24:02.157Z,90.98
2022-12-26T00:26:46.512Z,91.30
2022-12-26T00:29:24.330Z,91.48
2022-12-26T00:31:56.339Z,91.60
2022-12-26T00:34:28.122Z,91.47
2022-12-26T00:37:07.776Z,91.58
2022-12-26T00:39:37.478Z,91.73
2022-12-26T00:42:07.878Z,92.00
2022-12-26T00:44:35.059Z,92.17
2022-12-26T00:47:04.771Z,92.16
2022-12-26T00:50:13.676Z,92.39
2022-12-26T00:52:42.900Z,92.57
2022-12-26T00:55:20.223Z,92.80
2022-12-26T00:58:02.543Z,93.06
2022-12-26T01:00:33.644Z,93.02
2022-12-26T01:03:03.198Z,93.35
2022-12-26T01:05:35.553Z,93.53
2022-12-26T01:08:22.825Z,93.26
2022-12-26T01:10:53.846Z,93.47
2022-12-26T01:13:32.329Z,93.29
2022-12-26T01:16:07.959Z,93.66
2022-12-26T01:18:38.176Z,93.61
2022-12-26T01:21:17.030Z,93.64
2022-12-26T01:23:49.508Z,93.91
2022-12-26T01:26:20.260Z,94.04
2022-12-26T01:28:53.205Z,94.23
2022-12-26T01:31:29.976Z,94.37
2022-12-26T01:34:04.533Z,94.27
2022-12-26T01:37:00.919Z,94.28
2022-12-26T01:39:29.268Z,94.17
2022-12-26T01:42:19.500Z,94.23
2022-12-26T01:45:11.110Z,94.27
2022-12-26T01:47:43.504Z,94.09
2022-12-26T01:50:50.203Z,94.25
2022-12-26T01:53:33.128Z,93.92
2022-12-26T01:56:05.740Z,94.05
2022-12-26T01:58:50.469Z,93.95
2022-12-26T02:01:35.534Z,94.27
2022-12-26T02:04:25.873Z,94.29
2022-12-26T02:06:53.175Z,94.52
2022-12-26T02:09:22.607Z,94.61
2022-12-26T02:12:36.185Z,94.70
2022-12-26T02:14:58.034Z,94.72
2022-12-26T02:17:34.842Z,94.63
2022-12-26T02:20:26.215Z,94.71
2022-12-26T02:23:30.449Z,95.05
2022-12-26T02:30:52.300Z,95.01
2022-12-26T02:33:21.758Z,94.91
2022-12-26T02:36:25.953Z,95.01
2022-12-26T02:39:45.500Z,95.21
2022-12-26T02:42:25.940Z,95.30
2022-12-26T02:45:57.876Z,95.15
2022-12-26T02:48:57.798Z,95.19
2022-12-26T02:52:01.641Z,95.23
2022-12-26T02:55:25.947Z,95.31
2022-12-26T02:58:40.059Z,94.86
2022-12-26T03:01:53.862Z,94.78
2022-12-26T03:04:49.620Z,95.04
2022-12-26T03:08:15.488Z,95.24
2022-12-26T03:11:10.773Z,95.37
2022-12-26T03:13:48.631Z,95.43
2022-12-26T03:16:36.329Z,95.68
2022-12-26T03:19:17.847Z,95.86
2022-12-26T03:22:30.321Z,95.96
2022-12-26T03:25:24.795Z,96.12
2022-12-26T03:27:54.847Z,96.10
2022-12-26T03:30:52.473Z,96.11
2022-12-26T03:33:47.537Z,96.09
2022-12-26T03:36:57.559Z,96.15
2022-12-26T03:40:45.531Z,96.16
2022-12-26T03:43:43.838Z,96.30
2022-12-26T03:47:04.506Z,96.25
2022-12-26T03:50:02.003Z,96.27
2022-12-26T03:53:13.695Z,96.38
2022-12-26T03:56:13.807Z,96.49
2022-12-26T03:59:15.717Z,96.54
2022-12-26T04:02:11.166Z,96.62
2022-12-26T04:05:08.411Z,96.64
2022-12-26T04:08:05.580Z,96.68
2022-12-26T04:11:21.359Z,96.59
2022-12-26T04:14:27.381Z,96.41
2022-12-26T04:17:24.626Z,96.40
2022-12-26T04:20:20.447Z,96.53
2022-12-26T04:23:16.852Z,96.52
2022-12-26T04:26:26.177Z,96.57
2022-12-26T04:42:10.166Z,96.10
2022-12-26T04:44:51.114Z,96.16
2022-12-26T04:47:23.871Z,96.14
2022-12-26T04:50:16.545Z,96.13
2022-12-26T04:52:58.758Z,95.94
2022-12-26T04:55:41.791Z,96.13
2022-12-26T04:58:12.900Z,96.03
2022-12-26T05:01:08.223Z,96.14
2022-12-26T05:04:19.188Z,96.22
2022-12-26T05:07:11.562Z,96.10
2022-12-26T05:09:51.657Z,95.88
2022-12-26T05:12:21.051Z,95.88
2022-12-26T05:14:52.378Z,95.82
2022-12-26T05:17:45.938Z,95.75
2022-12-26T05:20:36.940Z,96.15
2022-12-26T05:23:44.392Z,96.22
2022-12-26T05:26:38.871Z,96.24
2022-12-26T05:29:18.530Z,96.24
2022-12-26T05:31:48.703Z,96.18
2022-12-26T05:34:29.384Z,96.21
2022-12-26T05:37:04.687Z,96.13
2022-12-26T05:39:40.891Z,96.06
2022-12-26T05:42:08.074Z,96.28
2022-12-26T05:44:40.450Z,96.20
2022-12-26T05:51:55.183Z,96.05
2022-12-26T05:54:24.966Z,96.34
2022-12-26T05:57:00.496Z,96.29
2022-12-26T05:59:45.126Z,96.15
2022-12-26T06:02:12.338Z,96.11
2022-12-26T06:04:42.764Z,96.37
2022-12-26T06:07:24.712Z,96.41
2022-12-26T06:09:53.434Z,96.51
2022-12-26T06:12:20.610Z,96.38
2022-12-26T06:14:53.729Z,96.29
2022-12-26T06:17:32.658Z,96.20
2022-12-26T06:24:30.338Z,96.26
2022-12-26T06:27:04.986Z,96.24
2022-12-26T06:29:44.389Z,96.43
2022-12-26T06:32:22.086Z,96.56
2022-12-26T06:35:12.817Z,96.27
2022-12-26T06:37:51.227Z,96.24
2022-12-26T06:40:28.268Z,96.39
2022-12-26T06:42:59.760Z,96.40
2022-12-26T06:45:32.837Z,96.19
2022-12-26T06:48:16.509Z,96.15
2022-12-26T06:50:47.889Z,96.22
2022-12-26T06:53:22.938Z,96.27
2022-12-26T06:56:09.559Z,96.10
2022-12-26T06:58:42.333Z,95.95
2022-12-26T07:01:42.060Z,95.91
2022-12-26T07:05:48.908Z,95.88
2022-12-26T07:07:27.359Z,95.81
2022-12-26T07:09:59.513Z,95.66
2022-12-26T07:12:29.447Z,95.76
2022-12-26T07:15:04.306Z,95.98
2022-12-26T07:17:31.583Z,95.64
2022-12-26T07:20:08.269Z,95.74
2022-12-26T07:22:38.816Z,95.82
2022-12-26T07:25:16.153Z,95.79
2022-12-26T07:27:44.828Z,95.89
2022-12-26T07:30:14.448Z,96.07
2022-12-26T07:32:45.754Z,96.29
2022-12-26T07:35:19.348Z,96.45
2022-12-26T07:37:55.165Z,96.59
2022-12-26T07:40:29.256Z,96.71
2022-12-26T07:43:09.282Z,96.21
2022-12-26T07:45:41.880Z,96.21
2022-12-26T07:48:21.104Z,95.91
2022-12-26T07:50:52.159Z,95.33
2022-12-26T07:53:24.972Z,95.26
2022-12-26T07:56:12.144Z,95.09
2022-12-26T07:58:39.344Z,95.34
2022-12-26T08:01:15.984Z,95.09
2022-12-26T08:03:45.639Z,94.95
2022-12-26T08:06:51.878Z,94.90
2022-12-26T08:09:32.062Z,94.43
2022-12-26T08:12:06.201Z,94.22
2022-12-26T08:14:44.449Z,94.48
2022-12-26T08:17:26.088Z,93.86
2022-12-26T08:20:00.184Z,93.44
2022-12-26T08:22:35.471Z,93.30
2022-12-26T08:25:22.262Z,93.42
2022-12-26T08:27:51.707Z,92.65
2022-12-26T08:30:34.649Z,92.51
2022-12-26T08:33:06.627Z,92.28
2022-12-26T08:35:35.568Z,92.54
2022-12-26T08:38:13.731Z,91.85
2022-12-26T08:40:43.685Z,91.76
2022-12-26T08:43:45.004Z,91.22
2022-12-26T08:46:12.855Z,91.09
2022-12-26T08:48:56.335Z,90.51
2022-12-26T08:51:31.174Z,90.62
2022-12-26T08:53:58.431Z,90.11
2022-12-26T08:56:36.514Z,90.10
2022-12-26T08:59:11.487Z,89.56
2022-12-26T09:01:40.922Z,89.20
2022-12-26T09:04:12.969Z,89.17
2022-12-26T09:06:48.716Z,88.82
2022-12-26T09:09:25.228Z,88.41
2022-12-26T09:12:06.394Z,88.09
2022-12-26T09:14:43.698Z,87.45
2022-12-26T09:17:14.137Z,87.35
2022-12-26T09:19:48.459Z,87.49
2022-12-26T09:22:36.121Z,87.00
2022-12-26T09:25:04.608Z,86.80
2022-12-26T09:27:37.403Z,86.85
2022-12-26T09:30:12.907Z,86.71
2022-12-26T09:32:47.147Z,86.78
2022-12-26T09:35:19.150Z,86.82
2022-12-26T09:37:52.469Z,86.79
2022-12-26T09:40:28.542Z,86.51
2022-12-26T09:43:11.062Z,86.36
2022-12-26T09:46:07.117Z,86.13
2022-12-26T09:48:59.971Z,85.93
2022-12-26T09:51:32.447Z,85.95
2022-12-26T09:57:02.404Z,84.84
2022-12-26T09:59:49.763Z,84.01
2022-12-26T10:02:29.010Z,83.79
2022-12-26T10:05:01.743Z,83.80
2022-12-26T10:07:50.712Z,83.54
2022-12-26T10:10:35.374Z,83.49
2022-12-26T10:13:29.366Z,83.21
2022-12-26T10:16:08.342Z,83.23
2022-12-26T10:18:43.320Z,82.99
2022-12-26T10:21:32.868Z,83.22
2022-12-26T10:24:19.746Z,82.90
2022-12-26T10:27:23.558Z,82.61
2022-12-26T10:30:02.149Z,82.47
2022-12-26T10:32:45.614Z,82.80
2022-12-26T10:35:39.371Z,82.20
2022-12-26T10:38:31.494Z,81.99
2022-12-26T10:41:21.589Z,82.32
2022-12-26T10:43:53.829Z,82.69
2022-12-26T10:46:37.065Z,83.01
2022-12-26T10:49:13.380Z,83.05
2022-12-26T10:51:43.429Z,83.21
2022-12-26T10:54:18.276Z,83.16
2022-12-26T10:56:54.828Z,83.05
2022-12-26T10:59:40.832Z,83.12
2022-12-26T11:02:32.997Z,82.75
2022-12-26T11:05:33.247Z,82.63
2022-12-26T11:08:28.027Z,82.32
2022-12-26T11:15:29.674Z,81.40
2022-12-26T11:18:24.594Z,81.85
2022-12-26T11:21:14.775Z,82.07
2022-12-26T11:23:46.140Z,81.37
2022-12-26T11:26:27.583Z,80.96
2022-12-26T11:29:21.999Z,80.81
2022-12-26T11:32:00.436Z,80.12
2022-12-26T11:34:37.525Z,80.39
2022-12-26T11:37:28.443Z,80.36
2022-12-26T11:40:02.608Z,80.70
2022-12-26T11:42:35.040Z,80.77
2022-12-26T11:45:24.676Z,80.81
2022-12-26T11:48:03.233Z,80.77
2022-12-26T11:50:41.960Z,81.43
2022-12-26T11:53:17.847Z,81.38
2022-12-26T11:56:06.681Z,81.90
2022-12-26T11:58:39.586Z,82.13
2022-12-26T12:01:18.496Z,82.45
2022-12-26T12:04:02.238Z,82.42
2022-12-26T12:06:47.586Z,82.40
2022-12-26T12:09:37.693Z,83.33
2022-12-26T12:12:27.552Z,83.18
2022-12-26T12:15:25.222Z,82.67
2022-12-26T12:18:18.621Z,82.40
2022-12-26T12:21:12.769Z,82.40
2022-12-26T12:24:25.592Z,82.04
2022-12-26T12:27:09.884Z,81.78
2022-12-26T12:30:02.274Z,80.78
2022-12-26T12:35:46.581Z,79.87
2022-12-26T12:38:35.125Z,80.56
2022-12-26T12:41:44.496Z,80.23
2022-12-26T12:44:55.793Z,80.66
2022-12-26T12:47:45.482Z,80.93
2022-12-26T12:50:30.443Z,81.10
2022-12-26T12:53:48.678Z,81.76
2022-12-26T12:56:58.919Z,81.84
2022-12-26T12:59:44.749Z,81.78
2022-12-26T13:02:27.369Z,81.99
2022-12-26T13:05:24.467Z,82.07
2022-12-26T13:07:57.847Z,82.39
2022-12-26T13:10:38.210Z,82.18
2022-12-26T13:13:23.048Z,81.43
2022-12-26T13:15:58.615Z,81.46
2022-12-26T13:18:32.365Z,82.20
2022-12-26T13:21:05.155Z,81.73
2022-12-26T13:24:05.684Z,82.53
2022-12-26T13:26:46.949Z,82.51
2022-12-26T13:29:32.089Z,83.27
2022-12-26T13:32:37.075Z,83.27
2022-12-26T13:35:05.674Z,82.98
2022-12-26T13:37:37.262Z,83.85
2022-12-26T13:40:30.595Z,84.18
2022-12-26T13:43:34.673Z,84.19
2022-12-26T13:46:05.598Z,84.11
2022-12-26T13:48:35.419Z,84.13
2022-12-26T13:51:07.211Z,84.20
2022-12-26T13:53:45.244Z,84.40
2022-12-26T13:56:28.401Z,84.32
2022-12-26T13:59:02.154Z,84.72
2022-12-26T14:06:10.689Z,85.28
2022-12-26T14:09:20.188Z,85.23
2022-12-26T14:12:01.715Z,84.80
2022-12-26T14:14:42.157Z,85.24
2022-12-26T14:17:23.421Z,85.58
2022-12-26T14:20:38.821Z,85.13
2022-12-26T14:23:26.246Z,85.55
2022-12-26T14:26:11.351Z,85.52
2022-12-26T14:29:01.524Z,85.18
2022-12-26T14:31:50.335Z,85.06
2022-12-26T14:34:35.046Z,83.87
2022-12-26T14:37:39.161Z,84.19
2022-12-26T14:40:42.826Z,83.73
2022-12-26T14:43:39.490Z,84.15
2022-12-26T14:46:38.639Z,84.54
2022-12-26T14:49:39.124Z,84.54
2022-12-26T14:52:44.573Z,85.16
2022-12-26T14:55:51.042Z,85.25
2022-12-26T14:58:23.851Z,85.29
2022-12-26T15:01:00.746Z,85.81
2022-12-26T15:03:35.890Z,85.77
2022-12-26T15:06:21.933Z,86.21
2022-12-26T15:09:09.923Z,86.41
2022-12-26T15:11:49.366Z,86.75
2022-12-26T15:14:42.532Z,86.91
2022-12-26T15:17:36.371Z,86.86
2022-12-26T15:20:36.730Z,87.07
2022-12-26T15:23:26.878Z,86.64
2022-12-26T15:26:15.680Z,86.96
2022-12-26T15:29:04.204Z,86.96
2022-12-26T15:31:56.197Z,87.24
2022-12-26T15:34:42.011Z,87.25
2022-12-26T15:37:21.741Z,87.22
2022-12-26T15:41:11.263Z,87.48
2022-12-26T15:44:39.997Z,87.54
2022-12-26T15:47:23.058Z,87.55
2022-12-26T15:50:26.377Z,87.72
2022-12-26T15:53:12.772Z,87.49
2022-12-26T15:56:13.114Z,87.94
2022-12-26T15:59:09.339Z,87.61
2022-12-26T16:01:42.917Z,87.35
2022-12-26T16:04:24.936Z,87.56
2022-12-26T16:07:16.775Z,86.59
2022-12-26T16:09:49.792Z,86.79
2022-12-26T16:12:35.346Z,86.54
2022-12-26T16:15:16.801Z,86.81
2022-12-26T16:17:46.627Z,86.51
2022-12-26T16:20:54.430Z,86.43
2022-12-26T16:23:24.778Z,85.85
2022-12-26T16:25:58.599Z,85.96
2022-12-26T16:28:48.321Z,85.54
2022-12-26T16:31:25.907Z,85.52
2022-12-26T16:34:01.265Z,85.57
2022-12-26T16:36:43.386Z,85.56
2022-12-26T16:39:13.327Z,85.23
2022-12-26T16:41:59.195Z,85.61
2022-12-26T16:44:33.163Z,85.61
2022-12-26T16:47:09.330Z,85.84
2022-12-26T16:49:43.989Z,85.49
2022-12-26T16:52:35.205Z,85.68
2022-12-26T16:55:48.991Z,85.61
2022-12-26T16:58:28.879Z,85.01
2022-12-26T17:01:18.959Z,85.36
2022-12-26T17:03:56.183Z,85.22
2022-12-26T17:06:38.517Z,84.66
2022-12-26T17:09:10.791Z,84.78
2022-12-26T17:12:09.191Z,84.49
2022-12-26T17:14:56.390Z,84.59
2022-12-26T17:17:52.357Z,84.00
2022-12-26T17:20:25.932Z,84.12
2022-12-26T17:23:01.652Z,84.36
2022-12-26T17:25:35.954Z,84.00
2022-12-26T17:28:09.383Z,84.42
2022-12-26T17:30:46.812Z,84.59
2022-12-26T17:33:21.491Z,84.36
2022-12-26T17:36:52.520Z,84.43
2022-12-26T17:39:07.268Z,84.48
2022-12-26T17:41:54.267Z,84.31
2022-12-26T18:02:16.920Z,84.00
2022-12-26T18:04:49.430Z,84.49
2022-12-26T18:07:31.682Z,84.64
2022-12-26T18:10:05.655Z,84.69
2022-12-26T18:12:37.702Z,84.37
2022-12-26T18:15:25.244Z,84.86
2022-12-26T18:18:08.764Z,84.67
2022-12-26T18:20:36.917Z,84.19
2022-12-26T18:23:09.860Z,84.44
2022-12-26T18:25:54.165Z,84.30
2022-12-26T18:28:29.525Z,84.22
2022-12-26T18:30:58.879Z,84.27
2022-12-26T18:33:27.322Z,83.61
2022-12-26T18:36:04.415Z,83.35
2022-12-26T18:38:43.835Z,83.45
2022-12-26T18:41:20.128Z,83.80
2022-12-26T18:43:58.035Z,83.50
2022-12-26T18:46:31.758Z,83.66
2022-12-26T18:49:07.475Z,83.61
2022-12-26T18:51:41.880Z,84.06
2022-12-26T18:54:11.850Z,84.13
2022-12-26T18:56:43.747Z,83.85
2022-12-26T18:59:17.453Z,84.05
2022-12-26T19:01:53.700Z,84.31
2022-12-26T19:04:27.156Z,84.06
2022-12-26T19:07:03.404Z,84.40
2022-12-26T19:09:33.586Z,84.47
2022-12-26T19:12:07.299Z,84.61
2022-12-26T19:14:41.906Z,84.48
2022-12-26T19:17:19.798Z,84.90
2022-12-26T19:19:47.834Z,84.91
2022-12-26T19:22:27.704Z,84.64
2022-12-26T19:24:58.053Z,85.03
2022-12-26T19:27:41.177Z,85.38
2022-12-26T19:30:17.171Z,85.36
2022-12-26T19:32:47.273Z,85.21
2022-12-26T19:35:27.618Z,85.06
2022-12-26T19:37:57.989Z,85.35
2022-12-26T19:40:30.271Z,85.15
2022-12-26T19:43:08.985Z,85.38
2022-12-26T19:45:47.381Z,84.88
2022-12-26T19:48:21.327Z,85.28
2022-12-26T19:51:06.747Z,85.29
2022-12-26T19:53:49.584Z,85.48
2022-12-26T19:56:20.532Z,85.18
2022-12-26T19:58:56.859Z,85.60
2022-12-26T20:01:31.262Z,85.38
2022-12-26T20:04:03.544Z,85.40
2022-12-26T20:06:35.183Z,85.51
2022-12-26T20:09:09.855Z,85.69
2022-12-26T20:11:43.455Z,85.77
2022-12-26T20:14:21.962Z,85.58
2022-12-26T20:17:11.223Z,85.21
2022-12-26T20:19:54.664Z,85.44
2022-12-26T20:25:23.779Z,85.01
2022-12-26T20:28:02.059Z,85.06
2022-12-26T20:30:42.632Z,84.65
2022-12-26T20:33:18.103Z,84.58
2022-12-26T20:35:47.050Z,84.51
2022-12-26T20:38:20.821Z,84.65
2022-12-26T20:41:05.679Z,84.60
2022-12-26T20:43:51.583Z,84.44
2022-12-26T20:46:27.688Z,84.23
2022-12-26T20:48:58.021Z,84.17
2022-12-26T20:51:36.951Z,84.47
2022-12-26T20:54:08.830Z,85.30
2022-12-26T20:56:49.629Z,85.39
2022-12-26T20:59:24.372Z,85.80
2022-12-26T21:02:04.508Z,85.50
2022-12-26T21:04:33.228Z,85.62
2022-12-26T21:07:02.260Z,86.08
2022-12-26T21:09:34.576Z,86.24
2022-12-26T21:12:09.196Z,86.11
2022-12-26T21:14:42.287Z,86.28
2022-12-26T21:17:19.738Z,86.05
2022-12-26T21:20:02.086Z,86.17
2022-12-26T21:22:32.070Z,86.35
2022-12-26T21:25:08.279Z,85.62
2022-12-26T21:27:42.950Z,86.22
2022-12-26T21:30:20.649Z,85.83
2022-12-26T21:38:10.873Z,85.63
2022-12-26T21:40:47.339Z,86.17
2022-12-26T21:43:27.142Z,86.04
2022-12-26T21:46:02.944Z,85.96
2022-12-26T21:48:41.260Z,86.28
2022-12-26T21:51:15.679Z,86.26
2022-12-26T21:53:49.009Z,86.41
2022-12-26T21:56:18.552Z,86.78
2022-12-26T21:59:10.311Z,86.57
2022-12-26T22:01:45.576Z,86.66
2022-12-26T22:04:23.784Z,86.86
2022-12-26T22:07:00.247Z,86.88
2022-12-26T22:09:38.224Z,86.92
2022-12-26T22:12:34.660Z,86.68
2022-12-26T22:15:07.821Z,87.19
2022-12-26T22:17:39.553Z,86.30
2022-12-26T22:20:07.336Z,86.40
2022-12-26T22:22:37.224Z,87.08
2022-12-26T22:25:05.726Z,86.53
2022-12-26T22:27:42.271Z,86.73
2022-12-26T22:30:17.549Z,86.72
2022-12-26T22:33:00.621Z,86.63
2022-12-26T22:35:32.418Z,86.41
2022-12-26T22:38:06.374Z,86.61
2022-12-26T22:40:46.298Z,86.13
2022-12-26T22:43:17.943Z,86.09
2022-12-26T22:45:52.688Z,86.01
2022-12-26T22:52:40.858Z,85.21
2022-12-26T22:55:13.718Z,85.44
2022-12-26T22:57:41.832Z,85.12
2022-12-26T23:00:18.721Z,85.07
2022-12-26T23:02:49.515Z,85.11
2022-12-26T23:05:26.665Z,85.25
2022-12-26T23:08:00.772Z,85.41
2022-12-26T23:10:33.756Z,85.35
2022-12-26T23:13:01.629Z,85.22
2022-12-26T23:15:33.452Z,84.53
2022-12-26T23:18:40.117Z,85.07
2022-12-26T23:21:39.451Z,85.16
2022-12-26T23:24:11.710Z,85.66
2022-12-26T23:26:46.631Z,85.61
2022-12-26T23:29:36.537Z,85.44
2022-12-26T23:32:15.209Z,84.95
2022-12-26T23:34:44.584Z,85.33
2022-12-26T23:37:13.733Z,85.42
2022-12-26T23:39:46.455Z,85.88
2022-12-26T23:42:32.181Z,85.25
2022-12-26T23:45:14.696Z,85.61
2022-12-26T23:47:47.949Z,85.97
2022-12-26T23:50:30.135Z,86.29
2022-12-26T23:53:03.192Z,86.30
2022-12-26T23:55:37.032Z,86.09
2022-12-26T23:58:06.565Z,85.60
